createdAt,value
2022-09-10T00:01:40.639Z,8.67
2022-09-10T00:04:14.462Z,9.67
2022-09-10T00:06:44.937Z,8.67
2022-09-10T00:09:14.332Z,8.00
2022-09-10T00:11:43.762Z,9.00
2022-09-10T00:14:20.663Z,9.67
2022-09-10T00:16:50.593Z,9.50
2022-09-10T00:19:20.056Z,9.67
2022-09-10T00:21:50.787Z,10.00
2022-09-10T00:24:19.390Z,11.67
2022-09-10T00:26:48.465Z,11.67
2022-09-10T00:29:17.658Z,8.00
2022-09-10T00:31:46.821Z,10.00
2022-09-10T00:34:15.374Z,11.67
2022-09-10T00:36:45.050Z,10.00
2022-09-10T00:39:18.575Z,10.00
2022-09-10T00:41:49.206Z,7.67
2022-09-10T00:44:40.927Z,10.00
2022-09-10T00:47:38.405Z,9.33
2022-09-10T00:50:29.807Z,11.00
2022-09-10T00:53:06.338Z,13.50
2022-09-10T00:55:38.520Z,11.00
2022-09-10T00:58:10.276Z,13.00
2022-09-10T01:00:41.427Z,10.50
2022-09-10T01:03:14.243Z,12.00
2022-09-10T01:05:47.182Z,13.00
2022-09-10T01:08:18.227Z,12.00
2022-09-10T01:11:50.008Z,12.00
2022-09-10T01:14:58.882Z,11.00
2022-09-10T01:18:17.554Z,12.00
2022-09-10T01:21:24.225Z,13.50
2022-09-10T01:24:25.126Z,14.00
2022-09-10T01:27:46.036Z,14.00
2022-09-10T01:30:41.808Z,13.00
2022-09-10T01:33:38.205Z,12.00
2022-09-10T01:36:26.055Z,12.00
2022-09-10T01:38:55.709Z,12.00
2022-09-10T01:41:26.061Z,12.00
2022-09-10T01:43:54.802Z,12.00
2022-09-10T01:47:01.193Z,13.00
2022-09-10T01:50:24.278Z,13.00
2022-09-10T01:53:31.125Z,12.00
2022-09-10T01:56:26.123Z,12.00
2022-09-10T01:59:23.578Z,11.33
2022-09-10T02:02:22.851Z,13.00
2022-09-10T02:04:54.094Z,11.00
2022-09-10T02:07:26.994Z,12.00
2022-09-10T02:09:55.972Z,13.33
2022-09-10T02:12:24.777Z,13.00
2022-09-10T02:14:57.362Z,12.00
2022-09-10T02:17:37.673Z,13.00
2022-09-10T02:20:14.855Z,11.00
2022-09-10T02:22:52.637Z,12.50
2022-09-10T02:25:21.335Z,11.00
2022-09-10T02:27:49.897Z,13.00
2022-09-10T02:30:20.337Z,11.00
2022-09-10T02:32:48.838Z,12.33
2022-09-10T02:35:17.515Z,13.50
2022-09-10T02:37:46.021Z,13.00
2022-09-10T02:40:14.738Z,12.00
2022-09-10T02:42:46.863Z,11.00
2022-09-10T02:45:16.509Z,13.00
2022-09-10T02:47:45.129Z,12.50
2022-09-10T02:50:13.749Z,11.00
2022-09-10T02:52:43.173Z,11.00
2022-09-10T02:55:12.928Z,12.50
2022-09-10T02:57:41.080Z,13.00
2022-09-10T03:00:11.089Z,13.50
2022-09-10T03:02:40.460Z,12.50
2022-09-10T03:05:09.747Z,13.00
2022-09-10T03:07:38.328Z,13.00
2022-09-10T03:10:08.386Z,12.00
2022-09-10T03:12:37.220Z,12.00
2022-09-10T03:15:07.299Z,12.00
2022-09-10T03:17:36.012Z,12.50
2022-09-10T03:20:06.760Z,13.00
2022-09-10T03:22:35.537Z,12.00
2022-09-10T03:25:05.684Z,14.00
2022-09-10T03:27:34.353Z,11.33
2022-09-10T03:30:03.374Z,12.00
2022-09-10T03:32:32.368Z,13.50
2022-09-10T03:35:00.938Z,14.00
2022-09-10T03:37:31.431Z,11.33
2022-09-10T03:40:00.924Z,14.00
2022-09-10T03:42:29.564Z,14.00
2022-09-10T03:44:58.126Z,13.00
2022-09-10T03:47:27.517Z,13.00
2022-09-10T03:49:56.327Z,13.00
2022-09-10T03:52:26.619Z,13.00
2022-09-10T03:54:56.330Z,13.00
2022-09-10T03:57:26.065Z,13.00
2022-09-10T03:59:54.615Z,13.00
2022-09-10T04:02:23.236Z,12.00
2022-09-10T04:04:51.824Z,12.00
2022-09-10T04:07:21.384Z,12.00
2022-09-10T04:09:49.929Z,11.33
2022-09-10T04:12:18.479Z,11.00
2022-09-10T04:14:47.115Z,12.00
2022-09-10T04:17:15.891Z,9.00
2022-09-10T04:19:44.977Z,12.00
2022-09-10T04:22:13.486Z,11.67
2022-09-10T04:24:42.369Z,13.00
2022-09-10T04:27:10.939Z,12.00
2022-09-10T04:29:39.593Z,12.00
2022-09-10T04:32:09.356Z,15.67
2022-09-10T04:34:37.986Z,14.33
2022-09-10T04:37:06.582Z,10.50
2022-09-10T04:39:35.171Z,16.00
2022-09-10T04:42:09.951Z,14.33
2022-09-10T04:44:38.468Z,14.00
2022-09-10T04:47:07.114Z,14.00
2022-09-10T04:49:35.657Z,13.00
2022-09-10T04:52:04.980Z,14.00
2022-09-10T04:54:34.322Z,15.67
2022-09-10T04:57:02.898Z,16.00
2022-09-10T04:59:31.701Z,16.00
2022-09-10T05:02:00.363Z,14.00
2022-09-10T05:04:28.938Z,16.33
2022-09-10T05:06:57.911Z,15.00
2022-09-10T05:09:31.166Z,16.67
2022-09-10T05:12:01.211Z,17.00
2022-09-10T05:14:30.411Z,15.33
2022-09-10T05:17:00.203Z,16.33
2022-09-10T05:19:29.163Z,16.33
2022-09-10T05:21:57.733Z,16.33
2022-09-10T05:24:27.528Z,14.00
2022-09-10T05:26:57.078Z,16.00
2022-09-10T05:29:25.867Z,16.00
2022-09-10T05:31:54.599Z,17.00
2022-09-10T05:34:24.758Z,12.33
2022-09-10T05:36:53.309Z,14.00
2022-09-10T05:39:21.907Z,12.67
2022-09-10T05:41:50.516Z,13.00
2022-09-10T05:44:19.267Z,11.00
2022-09-10T05:46:48.349Z,14.00
2022-09-10T05:49:16.993Z,14.00
2022-09-10T05:51:45.611Z,13.00
2022-09-10T05:54:14.151Z,10.00
2022-09-10T05:56:42.832Z,13.00
2022-09-10T05:59:11.406Z,12.00
2022-09-10T06:01:40.071Z,14.00
2022-09-10T06:04:11.831Z,12.00
2022-09-10T06:06:41.157Z,15.00
2022-09-10T06:09:09.791Z,17.67
2022-09-10T06:11:38.710Z,19.00
2022-09-10T06:14:07.455Z,16.00
2022-09-10T06:16:35.989Z,14.00
2022-09-10T06:19:03.909Z,12.00
2022-09-10T06:21:32.798Z,10.33
2022-09-10T06:24:01.734Z,10.00
2022-09-10T06:26:30.294Z,11.50
2022-09-10T06:28:58.931Z,14.00
2022-09-10T06:31:27.713Z,13.67
2022-09-10T06:33:56.196Z,12.00
2022-09-10T06:36:24.876Z,13.00
2022-09-10T06:38:55.737Z,13.00
2022-09-10T06:41:25.033Z,11.00
2022-09-10T06:43:52.713Z,11.00
2022-09-10T06:49:12.098Z,10.00
2022-09-10T06:51:39.985Z,10.00
2022-09-10T06:54:08.728Z,9.00
2022-09-10T06:56:37.353Z,11.00
2022-09-10T06:59:05.746Z,9.67
2022-09-10T07:01:34.197Z,9.00
2022-09-10T07:04:03.003Z,8.33
2022-09-10T07:06:33.806Z,8.67
2022-09-10T07:09:05.744Z,7.00
2022-09-10T07:11:37.952Z,8.67
2022-09-10T07:14:14.037Z,7.00
2022-09-10T07:16:44.716Z,8.00
2022-09-10T07:19:15.212Z,7.00
2022-09-10T07:21:45.119Z,6.40
2022-09-10T07:24:14.602Z,8.33
2022-09-10T07:26:42.975Z,7.00
2022-09-10T07:29:11.521Z,9.00
2022-09-10T07:31:41.719Z,8.67
2022-09-10T07:34:10.167Z,5.67
2022-09-10T07:36:38.517Z,6.33
2022-09-10T07:39:06.925Z,6.00
2022-09-10T07:41:36.983Z,6.00
2022-09-10T07:44:05.688Z,8.00
2022-09-10T07:46:35.118Z,6.20
2022-09-10T07:49:09.373Z,6.80
2022-09-10T07:51:39.482Z,6.20
2022-09-10T07:54:08.988Z,6.00
2022-09-10T07:56:37.996Z,7.00
2022-09-10T07:59:06.392Z,7.67
2022-09-10T08:01:34.793Z,8.67
2022-09-10T08:04:05.231Z,7.00
2022-09-10T08:06:34.109Z,5.67
2022-09-10T08:09:09.976Z,7.00
2022-09-10T08:11:41.930Z,6.00
2022-09-10T08:14:13.465Z,7.20
2022-09-10T08:16:44.541Z,5.80
2022-09-10T08:19:15.985Z,6.00
2022-09-10T08:21:45.443Z,5.00
2022-09-10T08:24:14.025Z,6.00
2022-09-10T08:26:43.582Z,4.80
2022-09-10T08:29:13.966Z,5.40
2022-09-10T08:31:43.376Z,5.00
2022-09-10T08:34:14.431Z,5.00
2022-09-10T08:36:43.862Z,4.60
2022-09-10T08:39:14.419Z,5.00
2022-09-10T08:41:56.463Z,3.40
2022-09-10T08:44:36.806Z,6.20
2022-09-10T08:47:53.693Z,5.20
2022-09-10T08:50:49.471Z,2.00
2022-09-10T08:53:50.097Z,14.00
2022-09-10T08:56:23.550Z,9.00
2022-09-10T08:59:23.905Z,9.67
2022-09-10T09:02:01.949Z,13.00
2022-09-10T09:05:01.539Z,7.00
2022-09-10T09:07:39.614Z,8.00
2022-09-10T09:11:00.431Z,7.60
2022-09-10T09:13:57.692Z,7.00
2022-09-10T09:16:55.684Z,7.60
2022-09-10T09:20:04.702Z,6.80
2022-09-10T09:23:12.623Z,6.00
2022-09-10T09:26:11.116Z,6.00
2022-09-10T09:28:50.667Z,7.00
2022-09-10T09:31:33.890Z,7.00
2022-09-10T09:34:22.985Z,7.00
2022-09-10T09:36:56.600Z,7.33
2022-09-10T09:40:07.189Z,7.00
2022-09-10T09:42:57.499Z,7.33
2022-09-10T09:45:25.875Z,8.00
2022-09-10T09:47:54.723Z,6.00
2022-09-10T09:50:23.234Z,6.00
2022-09-10T09:52:56.786Z,5.60
2022-09-10T09:56:10.965Z,8.00
2022-09-10T09:58:40.569Z,7.00
2022-09-10T10:01:22.679Z,7.20
2022-09-10T10:03:54.639Z,8.00
2022-09-10T10:06:49.476Z,8.00
2022-09-10T10:09:30.056Z,8.67
2022-09-10T10:12:09.030Z,7.00
2022-09-10T10:14:43.383Z,7.00
2022-09-10T10:17:32.768Z,6.33
2022-09-10T10:20:13.796Z,6.33
2022-09-10T10:22:48.765Z,6.00
2022-09-10T10:25:38.825Z,7.67
2022-09-10T10:28:25.322Z,6.00
2022-09-10T10:30:59.600Z,6.60
2022-09-10T10:33:33.888Z,5.80
2022-09-10T10:36:25.620Z,4.20
2022-09-10T10:39:36.638Z,5.00
2022-09-10T10:43:08.052Z,4.60
2022-09-10T10:46:09.999Z,3.00
2022-09-10T10:49:32.579Z,3.00
2022-09-10T10:52:46.841Z,3.40
2022-09-10T10:56:00.608Z,2.20
2022-09-10T10:58:56.041Z,2.00
2022-09-10T11:01:30.236Z,4.00
2022-09-10T11:04:36.161Z,5.20
2022-09-10T11:07:21.943Z,2.00
2022-09-10T11:10:13.043Z,3.00
2022-09-10T11:13:03.324Z,1.80
2022-09-10T11:15:42.607Z,1.00
2022-09-10T11:18:45.889Z,1.00
2022-09-10T11:22:03.303Z,1.00
2022-09-10T11:24:57.225Z,0.60
2022-09-10T11:27:45.165Z,0.40
2022-09-10T11:30:17.717Z,1.00
2022-09-10T11:33:10.245Z,0.40
2022-09-10T11:36:09.681Z,0.80
2022-09-10T11:38:57.781Z,1.00
2022-09-10T11:41:34.610Z,0.60
2022-09-10T11:44:16.464Z,1.00
2022-09-10T11:47:47.978Z,0.60
2022-09-10T11:50:57.997Z,0.00
2022-09-10T11:53:28.282Z,0.40
2022-09-10T11:56:50.035Z,0.60
2022-09-10T12:00:12.040Z,0.00
2022-09-10T12:03:28.028Z,1.00
2022-09-10T12:06:32.147Z,1.00
2022-09-10T12:09:33.048Z,1.00
2022-09-10T12:12:14.135Z,0.80
2022-09-10T12:14:43.624Z,0.00
2022-09-10T12:17:42.721Z,0.00
2022-09-10T12:20:51.088Z,0.60
2022-09-10T12:23:40.742Z,0.00
2022-09-10T12:26:19.843Z,0.00
2022-09-10T12:28:49.510Z,0.00
2022-09-10T12:31:22.237Z,0.00
2022-09-10T12:34:06.898Z,0.20
2022-09-10T12:36:36.748Z,0.00
2022-09-10T12:39:28.257Z,0.00
2022-09-10T12:42:23.858Z,0.00
2022-09-10T12:44:54.273Z,0.00
2022-09-10T12:47:43.547Z,0.00
2022-09-10T12:50:32.918Z,0.00
2022-09-10T12:53:47.415Z,0.00
2022-09-10T12:56:45.787Z,0.00
2022-09-10T13:00:13.565Z,0.00
2022-09-10T13:03:07.858Z,0.00
2022-09-10T13:05:48.662Z,0.00
2022-09-10T13:08:28.681Z,0.00
2022-09-10T13:10:59.118Z,0.00
2022-09-10T13:13:45.641Z,0.00
2022-09-10T13:16:26.689Z,0.00
2022-09-10T13:19:18.005Z,0.00
2022-09-10T13:21:48.231Z,0.00
2022-09-10T13:24:36.553Z,0.00
2022-09-10T13:27:33.745Z,0.00
2022-09-10T13:30:20.285Z,0.00
2022-09-10T13:33:01.341Z,0.00
2022-09-10T13:36:10.727Z,0.00
2022-09-10T13:39:32.429Z,0.00
2022-09-10T13:42:47.391Z,0.00
2022-09-10T13:45:49.234Z,1.00
2022-09-10T13:48:27.697Z,0.60
2022-09-10T13:51:23.396Z,0.00
2022-09-10T13:53:54.337Z,0.00
2022-09-10T13:56:28.262Z,0.00
2022-09-10T13:59:02.369Z,0.00
2022-09-10T14:01:59.921Z,0.00
2022-09-10T14:04:35.894Z,0.00
2022-09-10T14:07:22.137Z,0.60
2022-09-10T14:09:59.932Z,0.00
2022-09-10T14:12:35.217Z,0.00
2022-09-10T14:15:07.673Z,0.00
2022-09-10T14:17:47.905Z,0.00
2022-09-10T14:20:27.154Z,0.60
2022-09-10T14:23:15.283Z,0.80
2022-09-10T14:25:46.685Z,1.00
2022-09-10T14:28:28.953Z,0.80
2022-09-10T14:31:25.455Z,0.00
2022-09-10T14:33:57.742Z,0.60
2022-09-10T14:36:30.115Z,1.00
2022-09-10T14:39:21.122Z,0.00
2022-09-10T14:42:10.425Z,0.80
2022-09-10T14:44:43.646Z,0.60
2022-09-10T14:47:37.364Z,0.20
2022-09-10T14:50:40.818Z,0.80
2022-09-10T14:53:11.881Z,1.00
2022-09-10T14:55:41.692Z,0.60
2022-09-10T14:58:12.091Z,0.00
2022-09-10T15:00:42.649Z,1.80
2022-09-10T15:03:16.163Z,0.00
2022-09-10T15:05:46.354Z,1.20
2022-09-10T15:08:15.809Z,0.40
2022-09-10T15:10:45.151Z,0.00
2022-09-10T15:13:18.883Z,0.40
2022-09-10T15:15:48.263Z,0.40
2022-09-10T15:18:17.673Z,0.40
2022-09-10T15:20:47.091Z,0.00
2022-09-10T15:23:18.336Z,0.60
2022-09-10T15:26:11.557Z,0.60
2022-09-10T15:28:42.531Z,1.00
2022-09-10T15:31:12.005Z,0.00
2022-09-10T15:33:42.201Z,1.00
2022-09-10T15:36:11.581Z,0.60
2022-09-10T15:38:41.112Z,0.00
2022-09-10T15:41:13.983Z,1.00
2022-09-10T15:43:44.825Z,1.00
2022-09-10T15:46:17.199Z,1.00
2022-09-10T15:48:47.613Z,1.00
2022-09-10T15:51:23.170Z,0.00
2022-09-10T15:53:54.479Z,1.00
2022-09-10T15:56:27.159Z,0.67
2022-09-10T15:58:58.832Z,0.60
2022-09-10T16:01:29.151Z,1.00
2022-09-10T16:04:04.173Z,0.00
2022-09-10T16:06:42.246Z,0.80
2022-09-10T16:09:13.871Z,0.00
2022-09-10T16:11:45.532Z,1.00
2022-09-10T16:14:16.884Z,1.00
2022-09-10T16:16:46.351Z,0.20
2022-09-10T16:19:15.813Z,0.00
2022-09-10T16:21:48.415Z,0.00
2022-09-10T16:24:17.892Z,0.00
2022-09-10T16:26:49.210Z,0.00
2022-09-10T16:29:21.427Z,0.00
2022-09-10T16:31:50.825Z,1.00
2022-09-10T16:34:22.280Z,0.00
2022-09-10T16:36:51.964Z,0.00
2022-09-10T16:39:21.400Z,1.00
2022-09-10T16:41:51.195Z,0.00
2022-09-10T16:44:21.005Z,1.20
2022-09-10T16:46:53.390Z,1.00
2022-09-10T16:49:21.867Z,1.67
2022-09-10T16:51:51.267Z,1.80
2022-09-10T16:54:21.536Z,1.40
2022-09-10T16:56:51.010Z,0.67
2022-09-10T16:59:23.816Z,1.40
2022-09-10T17:01:54.083Z,1.00
2022-09-10T17:04:28.960Z,0.60
2022-09-10T17:06:59.137Z,1.00
2022-09-10T17:09:27.990Z,0.33
2022-09-10T17:11:57.370Z,0.00
2022-09-10T17:14:26.800Z,0.00
2022-09-10T17:16:56.563Z,1.00
2022-09-10T17:19:32.010Z,0.00
2022-09-10T17:22:02.777Z,0.40
2022-09-10T17:24:32.297Z,0.20
2022-09-10T17:27:00.880Z,0.67
2022-09-10T17:29:29.977Z,0.00
2022-09-10T17:31:58.720Z,0.33
2022-09-10T17:34:28.209Z,0.67
2022-09-10T17:36:56.594Z,0.00
2022-09-10T17:39:28.453Z,0.00
2022-09-10T17:41:57.023Z,0.00
2022-09-10T17:44:26.991Z,0.00
2022-09-10T17:46:58.091Z,0.00
2022-09-10T17:49:26.450Z,0.00
2022-09-10T17:51:54.827Z,1.00
2022-09-10T17:54:25.872Z,0.43
2022-09-10T17:56:54.210Z,0.00
2022-09-10T17:59:22.671Z,0.00
2022-09-10T18:01:52.506Z,0.00
2022-09-10T18:04:21.728Z,0.00
2022-09-10T18:06:52.440Z,0.00
2022-09-10T18:09:22.512Z,1.00
2022-09-10T18:11:51.038Z,0.00
2022-09-10T18:14:21.639Z,0.00
2022-09-10T18:16:51.505Z,1.00
2022-09-10T18:19:21.109Z,0.00
2022-09-10T18:21:51.145Z,1.00
2022-09-10T18:24:24.219Z,0.00
2022-09-10T18:26:55.007Z,0.00
2022-09-10T18:29:27.911Z,0.00
2022-09-10T18:32:01.793Z,1.00
2022-09-10T18:34:31.511Z,0.00
2022-09-10T18:37:02.787Z,1.00
2022-09-10T18:39:33.728Z,1.00
2022-09-10T18:42:02.895Z,0.67
2022-09-10T18:44:34.360Z,1.00
2022-09-10T18:47:03.686Z,1.00
2022-09-10T18:49:32.079Z,1.67
2022-09-10T18:52:00.502Z,1.00
2022-09-10T18:54:29.345Z,0.00
2022-09-10T18:56:58.436Z,0.00
2022-09-10T18:59:27.500Z,0.00
2022-09-10T19:01:56.309Z,0.00
2022-09-10T19:04:29.165Z,0.00
2022-09-10T19:06:58.617Z,1.00
2022-09-10T19:09:30.425Z,1.00
2022-09-10T19:12:00.589Z,0.00
2022-09-10T19:14:32.769Z,0.00
2022-09-10T19:17:02.536Z,0.33
2022-09-10T19:19:35.309Z,0.00
2022-09-10T19:22:10.714Z,0.00
2022-09-10T19:24:55.553Z,1.00
2022-09-10T19:27:25.212Z,1.00
2022-09-10T19:29:53.866Z,1.00
2022-09-10T19:32:22.454Z,1.00
2022-09-10T19:34:52.046Z,0.00
2022-09-10T19:37:21.112Z,1.00
2022-09-10T19:39:49.558Z,1.00
2022-09-10T19:42:18.074Z,0.00
2022-09-10T19:44:46.394Z,1.00
2022-09-10T19:47:14.780Z,0.00
2022-09-10T19:49:43.301Z,0.00
2022-09-10T19:52:11.701Z,0.00
2022-09-10T19:54:40.043Z,0.00
2022-09-10T19:57:08.404Z,0.00
2022-09-10T19:59:36.755Z,0.33
2022-09-10T20:02:05.180Z,0.33
2022-09-10T20:04:33.842Z,1.00
2022-09-10T20:07:02.227Z,1.00
2022-09-10T20:09:30.599Z,1.00
2022-09-10T20:11:59.068Z,0.00
2022-09-10T20:14:28.903Z,1.00
2022-09-10T20:16:57.233Z,1.00
2022-09-10T20:19:25.747Z,1.00
2022-09-10T20:21:53.428Z,1.00
2022-09-10T20:32:10.316Z,0.00
2022-09-10T20:37:09.360Z,1.00
2022-09-10T20:39:57.902Z,1.00
2022-09-10T20:42:33.141Z,1.00
2022-09-10T20:45:20.514Z,1.00
2022-09-10T20:47:49.291Z,1.00
2022-09-10T20:50:35.366Z,1.00
2022-09-10T20:53:03.264Z,1.00
2022-09-10T20:55:31.036Z,2.00
2022-09-10T20:57:58.777Z,2.00
2022-09-10T21:00:30.095Z,2.00
2022-09-10T21:02:58.253Z,1.00
2022-09-10T21:05:28.342Z,1.00
2022-09-10T21:07:56.255Z,1.00
2022-09-10T21:10:24.169Z,1.00
2022-09-10T21:12:51.730Z,0.00
2022-09-10T21:15:19.354Z,1.00
2022-09-10T21:17:48.302Z,1.00
2022-09-10T21:20:16.361Z,1.00
2022-09-10T21:22:44.835Z,1.00
2022-09-10T21:25:13.175Z,1.00
2022-09-10T21:27:42.427Z,1.00
2022-09-10T21:30:11.059Z,1.00
2022-09-10T21:32:38.920Z,2.00
2022-09-10T21:35:07.577Z,1.00
2022-09-10T21:37:35.498Z,2.00
2022-09-10T21:40:12.257Z,1.00
2022-09-10T21:42:40.050Z,1.00
2022-09-10T21:45:08.604Z,2.00
2022-09-10T21:47:57.776Z,1.00
2022-09-10T21:50:25.540Z,0.50
2022-09-10T21:52:56.300Z,1.00
2022-09-10T21:55:24.079Z,1.00
2022-09-10T21:57:52.516Z,1.00
2022-09-10T22:00:20.359Z,1.00
2022-09-10T22:02:49.640Z,1.00
2022-09-10T22:05:17.293Z,0.50
2022-09-10T22:07:44.897Z,2.00
2022-09-10T22:10:12.830Z,2.00
2022-09-10T22:12:40.444Z,1.50
2022-09-10T22:15:09.452Z,2.00
2022-09-10T22:17:37.132Z,0.50
2022-09-10T22:20:07.357Z,2.00
2022-09-10T22:22:34.964Z,2.00
2022-09-10T22:25:02.563Z,0.00
2022-09-10T22:27:35.305Z,1.80
2022-09-10T22:30:04.841Z,2.00
2022-09-10T22:32:32.530Z,1.50
2022-09-10T22:35:00.168Z,2.00
2022-09-10T22:37:28.151Z,2.00
2022-09-10T22:39:55.961Z,2.00
2022-09-10T22:42:23.782Z,0.00
2022-09-10T22:44:51.981Z,1.00
2022-09-10T22:47:19.620Z,1.00
2022-09-10T22:49:47.620Z,2.00
2022-09-10T22:52:15.827Z,1.00
2022-09-10T22:54:45.279Z,2.00
2022-09-10T22:57:13.291Z,1.00
2022-09-10T22:59:41.398Z,1.00
2022-09-10T23:02:10.484Z,1.00
2022-09-10T23:04:38.088Z,2.00
2022-09-10T23:07:24.287Z,1.00
2022-09-10T23:09:57.810Z,0.00
2022-09-10T23:12:25.627Z,2.00
2022-09-10T23:15:11.669Z,1.00
2022-09-10T23:17:58.850Z,2.00
2022-09-10T23:20:31.112Z,2.00
2022-09-10T23:22:59.260Z,1.00
2022-09-10T23:25:26.965Z,2.00
2022-09-10T23:27:56.056Z,0.50
2022-09-10T23:30:24.025Z,1.00
2022-09-10T23:32:53.220Z,1.00
2022-09-10T23:35:20.844Z,1.00
2022-09-10T23:37:48.843Z,2.00
2022-09-10T23:40:17.390Z,2.75
2022-09-10T23:42:45.009Z,3.00
2022-09-10T23:45:12.597Z,1.00
2022-09-10T23:47:40.245Z,2.00
2022-09-10T23:50:08.802Z,2.00
2022-09-10T23:52:36.407Z,2.00
2022-09-10T23:55:04.355Z,2.00
2022-09-10T23:57:32.043Z,1.00
